createdAt,value
2022-09-15T00:00:30.842Z,94930.50
2022-09-15T00:02:57.806Z,94920.63
2022-09-15T00:05:24.710Z,94924.28
2022-09-15T00:07:51.712Z,94927.25
2022-09-15T00:10:19.090Z,94923.25
2022-09-15T00:12:46.122Z,94917.44
2022-09-15T00:15:15.203Z,94929.72
2022-09-15T00:17:42.974Z,94928.91
2022-09-15T00:20:10.859Z,94932.53
2022-09-15T00:22:38.281Z,94937.38
2022-09-15T00:25:06.216Z,94927.69
2022-09-15T00:27:34.016Z,94931.72
2022-09-15T00:30:01.294Z,94930.53
2022-09-15T00:32:29.930Z,94926.09
2022-09-15T00:34:56.907Z,94915.66
2022-09-15T00:37:23.925Z,94918.06
2022-09-15T00:39:50.943Z,94917.66
2022-09-15T00:42:20.363Z,94923.69
2022-09-15T00:44:49.540Z,94928.53
2022-09-15T00:47:19.654Z,94922.91
2022-09-15T00:49:53.919Z,94933.34
2022-09-15T00:52:32.482Z,94924.09
2022-09-15T00:55:16.129Z,94926.50
2022-09-15T00:57:55.857Z,94918.06
2022-09-15T01:00:25.890Z,94931.72
2022-09-15T01:02:53.374Z,94919.25
2022-09-15T01:05:23.870Z,94912.44
2022-09-15T01:08:01.952Z,94926.09
2022-09-15T01:10:35.291Z,94917.88
2022-09-15T01:13:06.918Z,94921.47
2022-09-15T01:15:48.680Z,94926.66
2022-09-15T01:18:23.495Z,94921.84
2022-09-15T01:21:21.283Z,94916.81
2022-09-15T01:24:06.286Z,94924.84
2022-09-15T01:26:46.122Z,94918.22
2022-09-15T01:29:21.922Z,94923.06
2022-09-15T01:32:19.086Z,94920.44
2022-09-15T01:34:55.568Z,94914.41
2022-09-15T01:37:29.735Z,94916.81
2022-09-15T01:39:59.677Z,94914.00
2022-09-15T01:42:30.489Z,94911.78
2022-09-15T01:45:07.210Z,94918.84
2022-09-15T01:47:35.851Z,94919.44
2022-09-15T01:50:22.874Z,94920.44
2022-09-15T01:52:53.098Z,94905.56
2022-09-15T01:55:29.735Z,94912.22
2022-09-15T01:57:58.176Z,94916.03
2022-09-15T02:00:25.064Z,94915.63
2022-09-15T02:03:05.174Z,94896.13
2022-09-15T02:05:41.511Z,94906.38
2022-09-15T02:08:25.566Z,94898.75
2022-09-15T02:11:06.046Z,94904.38
2022-09-15T02:13:39.309Z,94910.59
2022-09-15T02:16:20.286Z,94913.63
2022-09-15T02:19:04.544Z,94910.81
2022-09-15T02:21:40.708Z,94902.38
2022-09-15T02:24:20.070Z,94903.78
2022-09-15T02:26:50.247Z,94893.91
2022-09-15T02:29:20.942Z,94899.31
2022-09-15T02:31:50.865Z,94896.09
2022-09-15T02:34:26.154Z,94898.13
2022-09-15T02:36:54.689Z,94896.75
2022-09-15T02:39:26.321Z,94897.75
2022-09-15T02:41:53.455Z,94885.47
2022-09-15T02:44:20.285Z,94890.31
2022-09-15T02:46:47.172Z,94897.34
2022-09-15T02:49:14.416Z,94911.81
2022-09-15T02:51:41.210Z,94906.78
2022-09-15T02:54:08.442Z,94898.31
2022-09-15T02:56:35.345Z,94886.28
2022-09-15T02:59:02.155Z,94897.13
2022-09-15T03:01:32.382Z,94896.94
2022-09-15T03:03:59.400Z,94882.25
2022-09-15T03:06:28.089Z,94891.50
2022-09-15T03:08:57.549Z,94907.38
2022-09-15T03:11:27.035Z,94904.94
2022-09-15T03:13:56.398Z,94906.75
2022-09-15T03:16:24.206Z,94913.38
2022-09-15T03:18:52.391Z,94918.22
2022-09-15T03:21:19.628Z,94915.94
2022-09-15T03:23:46.553Z,94931.97
2022-09-15T03:26:13.545Z,94934.16
2022-09-15T03:28:40.786Z,94932.97
2022-09-15T03:31:08.963Z,94936.00
2022-09-15T03:33:37.045Z,94931.59
2022-09-15T03:36:04.100Z,94922.56
2022-09-15T03:38:31.165Z,94927.97
2022-09-15T03:41:01.727Z,94929.19
2022-09-15T03:43:30.484Z,94922.69
2022-09-15T03:45:57.935Z,94923.88
2022-09-15T03:48:25.800Z,94914.41
2022-09-15T03:50:52.769Z,94911.41
2022-09-15T03:53:20.358Z,94915.22
2022-09-15T03:55:49.140Z,94915.03
2022-09-15T03:58:17.550Z,94924.66
2022-09-15T04:00:45.943Z,94919.44
2022-09-15T04:03:13.512Z,94916.25
2022-09-15T04:05:40.885Z,94909.84
2022-09-15T04:08:12.186Z,94922.28
2022-09-15T04:10:40.352Z,94921.84
2022-09-15T04:13:07.577Z,94920.84
2022-09-15T04:15:34.843Z,94925.03
2022-09-15T04:18:01.708Z,94917.63
2022-09-15T04:20:28.573Z,94920.84
2022-09-15T04:22:55.431Z,94906.38
2022-09-15T04:25:22.248Z,94916.22
2022-09-15T04:27:49.199Z,94910.94
2022-09-15T04:30:16.077Z,94912.94
2022-09-15T04:32:42.905Z,94922.56
2022-09-15T04:35:10.278Z,94927.13
2022-09-15T04:37:37.104Z,94930.50
2022-09-15T04:40:04.284Z,94924.09
2022-09-15T04:42:31.655Z,94925.09
2022-09-15T04:44:58.522Z,94930.09
2022-09-15T04:47:25.354Z,94923.28
2022-09-15T04:49:52.218Z,94922.09
2022-09-15T04:52:19.242Z,94927.34
2022-09-15T04:54:46.093Z,94923.00
2022-09-15T04:57:13.039Z,94924.84
2022-09-15T04:59:39.968Z,94921.44
2022-09-15T05:02:06.919Z,94923.44
2022-09-15T05:04:35.090Z,94912.19
2022-09-15T05:07:02.415Z,94918.66
2022-09-15T05:09:31.082Z,94919.28
2022-09-15T05:11:58.046Z,94918.94
2022-09-15T05:14:24.905Z,94926.78
2022-09-15T05:16:51.727Z,94908.31
2022-09-15T05:19:18.610Z,94914.19
2022-09-15T05:21:45.537Z,94916.22
2022-09-15T05:24:14.113Z,94910.41
2022-09-15T05:26:41.845Z,94902.38
2022-09-15T05:29:08.869Z,94912.44
2022-09-15T05:31:35.913Z,94907.81
2022-09-15T05:34:05.789Z,94906.00
2022-09-15T05:36:32.955Z,94901.94
2022-09-15T05:39:00.398Z,94898.31
2022-09-15T05:41:28.608Z,94887.22
2022-09-15T05:43:57.362Z,94886.81
2022-09-15T05:46:26.339Z,94887.78
2022-09-15T05:48:56.636Z,94874.66
2022-09-15T05:51:24.339Z,94878.66
2022-09-15T05:53:51.360Z,94874.78
2022-09-15T05:56:18.559Z,94869.94
2022-09-15T05:58:47.758Z,94862.63
2022-09-15T06:01:20.322Z,94876.28
2022-09-15T06:03:48.467Z,94866.19
2022-09-15T06:06:16.170Z,94870.97
2022-09-15T06:08:48.264Z,94876.50
2022-09-15T06:11:20.593Z,94877.25
2022-09-15T06:13:48.561Z,94886.81
2022-09-15T06:16:21.076Z,94895.31
2022-09-15T06:18:50.102Z,94895.06
2022-09-15T06:21:28.457Z,94881.03
2022-09-15T06:23:57.180Z,94877.75
2022-09-15T06:26:24.769Z,94867.38
2022-09-15T06:28:56.777Z,94875.63
2022-09-15T06:31:25.430Z,94871.72
2022-09-15T06:33:54.476Z,94882.94
2022-09-15T06:36:24.496Z,94877.22
2022-09-15T06:38:51.926Z,94872.88
2022-09-15T06:41:19.181Z,94874.47
2022-09-15T06:43:46.864Z,94871.91
2022-09-15T06:46:18.667Z,94870.44
2022-09-15T06:48:48.316Z,94865.25
2022-09-15T06:51:17.514Z,94871.41
2022-09-15T06:53:45.537Z,94873.47
2022-09-15T06:56:21.016Z,94884.66
2022-09-15T06:58:51.250Z,94899.34
2022-09-15T07:01:23.840Z,94890.81
2022-09-15T07:03:51.219Z,94902.84
2022-09-15T07:06:18.814Z,94888.22
2022-09-15T07:08:46.802Z,94896.13
2022-09-15T07:11:14.621Z,94898.06
2022-09-15T07:13:41.907Z,94912.13
2022-09-15T07:16:10.671Z,94919.94
2022-09-15T07:18:42.828Z,94922.81
2022-09-15T07:21:18.563Z,94916.44
2022-09-15T07:23:46.380Z,94925.72
2022-09-15T07:26:14.549Z,94938.22
2022-09-15T07:28:43.996Z,94945.38
2022-09-15T07:31:13.999Z,94941.25
2022-09-15T07:33:41.031Z,94944.44
2022-09-15T07:36:09.174Z,94935.97
2022-09-15T07:38:39.815Z,94940.28
2022-09-15T07:41:09.300Z,94932.84
2022-09-15T07:43:36.589Z,94930.31
2022-09-15T07:46:04.316Z,94922.06
2022-09-15T07:48:32.088Z,94922.00
2022-09-15T07:51:01.977Z,94930.34
2022-09-15T07:53:30.517Z,94920.00
2022-09-15T07:55:58.717Z,94917.38
2022-09-15T07:58:26.985Z,94932.03
2022-09-15T08:00:54.067Z,94906.13
2022-09-15T08:03:21.230Z,94915.09
2022-09-15T08:05:48.074Z,94921.47
2022-09-15T08:08:14.955Z,94923.16
2022-09-15T08:10:42.044Z,94924.28
2022-09-15T08:13:08.971Z,94910.66
2022-09-15T08:15:37.714Z,94923.31
2022-09-15T08:18:05.426Z,94908.06
2022-09-15T08:20:32.755Z,94892.47
2022-09-15T08:22:59.719Z,94901.09
2022-09-15T08:25:26.744Z,94893.91
2022-09-15T08:27:54.735Z,94893.28
2022-09-15T08:30:22.060Z,94882.31
2022-09-15T08:32:49.755Z,94892.28
2022-09-15T08:35:17.449Z,94882.44
2022-09-15T08:37:44.562Z,94873.59
2022-09-15T08:40:22.435Z,94874.06
2022-09-15T08:42:52.976Z,94869.69
2022-09-15T08:45:30.678Z,94868.50
2022-09-15T08:48:01.581Z,94881.22
2022-09-15T08:50:35.710Z,94876.81
2022-09-15T08:53:13.149Z,94868.91
2022-09-15T08:55:45.254Z,94858.53
2022-09-15T08:58:16.805Z,94858.88
2022-09-15T09:00:48.761Z,94856.34
2022-09-15T09:03:24.303Z,94851.38
2022-09-15T09:06:12.026Z,94846.53
2022-09-15T09:09:25.969Z,94845.25
2022-09-15T09:12:03.396Z,94845.88
2022-09-15T09:14:42.045Z,94841.13
2022-09-15T09:17:31.046Z,94833.72
2022-09-15T09:20:03.876Z,94836.94
2022-09-15T09:22:43.051Z,94834.28
2022-09-15T09:25:27.930Z,94824.13
2022-09-15T09:28:06.776Z,94821.16
2022-09-15T09:30:48.830Z,94811.84
2022-09-15T09:33:24.782Z,94800.94
2022-09-15T09:35:53.189Z,94805.41
2022-09-15T09:38:29.121Z,94801.97
2022-09-15T09:40:59.965Z,94800.03
2022-09-15T09:43:31.211Z,94813.56
2022-09-15T09:45:58.258Z,94802.59
2022-09-15T09:48:27.792Z,94815.78
2022-09-15T09:50:55.452Z,94816.84
2022-09-15T09:53:33.408Z,94814.09
2022-09-15T09:56:12.591Z,94811.56
2022-09-15T09:58:39.535Z,94809.91
2022-09-15T10:01:15.302Z,94807.91
2022-09-15T10:03:43.509Z,94806.59
2022-09-15T10:06:18.831Z,94809.66
2022-09-15T10:08:56.535Z,94805.25
2022-09-15T10:11:40.824Z,94794.13
2022-09-15T10:14:21.226Z,94797.88
2022-09-15T10:17:11.056Z,94788.31
2022-09-15T10:19:45.163Z,94778.34
2022-09-15T10:22:33.194Z,94777.44
2022-09-15T10:25:02.242Z,94777.19
2022-09-15T10:27:35.143Z,94771.53
2022-09-15T10:30:14.707Z,94768.34
2022-09-15T10:32:42.930Z,94767.00
2022-09-15T10:35:11.644Z,94766.03
2022-09-15T10:37:51.167Z,94759.31
2022-09-15T10:40:44.904Z,94767.47
2022-09-15T10:43:49.207Z,94763.28
2022-09-15T10:46:24.094Z,94762.59
2022-09-15T10:49:00.090Z,94766.00
2022-09-15T10:51:55.038Z,94751.72
2022-09-15T10:55:09.203Z,94745.66
2022-09-15T10:58:06.499Z,94745.28
2022-09-15T11:00:45.974Z,94739.63
2022-09-15T11:03:31.092Z,94747.06
2022-09-15T11:06:25.951Z,94741.09
2022-09-15T11:09:04.919Z,94726.63
2022-09-15T11:11:39.489Z,94720.31
2022-09-15T11:14:17.526Z,94721.22
2022-09-15T11:16:44.898Z,94717.72
2022-09-15T11:19:26.626Z,94715.34
2022-09-15T11:22:02.055Z,94720.78
2022-09-15T11:24:50.906Z,94720.69
2022-09-15T11:27:26.943Z,94712.50
2022-09-15T11:29:53.883Z,94703.91
2022-09-15T11:32:45.093Z,94698.31
2022-09-15T11:35:37.480Z,94709.56
2022-09-15T11:38:29.304Z,94705.13
2022-09-15T11:41:17.310Z,94700.56
2022-09-15T11:44:07.565Z,94704.41
2022-09-15T11:46:57.642Z,94710.00
2022-09-15T11:49:31.537Z,94708.22
2022-09-15T11:52:46.172Z,94688.66
2022-09-15T11:55:39.663Z,94687.59
2022-09-15T11:58:09.990Z,94686.38
2022-09-15T12:00:48.846Z,94681.97
2022-09-15T12:03:27.411Z,94677.97
2022-09-15T12:06:03.617Z,94684.09
2022-09-15T12:08:40.289Z,94676.09
2022-09-15T12:11:19.878Z,94668.72
2022-09-15T12:13:47.278Z,94658.41
2022-09-15T12:16:16.303Z,94653.44
2022-09-15T12:18:47.515Z,94648.53
2022-09-15T12:21:36.046Z,94645.50
2022-09-15T12:24:10.037Z,94647.88
2022-09-15T12:26:46.867Z,94637.88
2022-09-15T12:29:22.769Z,94636.22
2022-09-15T12:32:29.937Z,94627.59
2022-09-15T12:35:07.939Z,94627.91
2022-09-15T12:37:43.221Z,94626.63
2022-09-15T12:40:34.715Z,94616.28
2022-09-15T12:43:19.870Z,94617.28
2022-09-15T12:45:59.908Z,94622.44
2022-09-15T12:48:35.874Z,94614.28
2022-09-15T12:51:05.972Z,94614.31
2022-09-15T12:53:37.990Z,94612.81
2022-09-15T12:56:10.541Z,94604.72
2022-09-15T12:58:49.495Z,94611.53
2022-09-15T13:01:19.511Z,94602.22
2022-09-15T13:03:46.692Z,94595.91
2022-09-15T13:06:26.805Z,94597.47
2022-09-15T13:09:01.322Z,94595.13
2022-09-15T13:11:37.520Z,94596.38
2022-09-15T13:14:04.590Z,94593.69
2022-09-15T13:16:33.876Z,94592.06
2022-09-15T13:19:29.566Z,94590.66
2022-09-15T13:22:11.640Z,94584.84
2022-09-15T13:25:15.720Z,94591.97
2022-09-15T13:27:44.024Z,94577.22
2022-09-15T13:30:26.118Z,94580.09
2022-09-15T13:32:59.124Z,94582.47
2022-09-15T13:35:51.961Z,94573.94
2022-09-15T13:38:29.265Z,94565.41
2022-09-15T13:40:58.570Z,94569.22
2022-09-15T13:43:56.516Z,94576.91
2022-09-15T13:46:41.679Z,94568.25
2022-09-15T13:49:27.856Z,94577.91
2022-09-15T13:52:08.341Z,94563.84
2022-09-15T13:54:35.435Z,94567.47
2022-09-15T13:57:02.847Z,94564.47
2022-09-15T13:59:32.825Z,94567.81
2022-09-15T14:02:00.959Z,94575.69
2022-09-15T14:04:32.208Z,94575.84
2022-09-15T14:07:01.740Z,94564.78
2022-09-15T14:09:34.866Z,94567.34
2022-09-15T14:12:07.681Z,94567.00
2022-09-15T14:14:42.839Z,94565.38
2022-09-15T14:17:30.343Z,94572.06
2022-09-15T14:19:59.914Z,94559.41
2022-09-15T14:22:31.588Z,94566.38
2022-09-15T14:25:00.534Z,94567.78
2022-09-15T14:27:30.189Z,94564.47
2022-09-15T14:30:01.361Z,94562.25
2022-09-15T14:32:31.695Z,94562.88
2022-09-15T14:35:00.987Z,94563.38
2022-09-15T14:37:32.250Z,94563.81
2022-09-15T14:40:02.198Z,94557.53
2022-09-15T14:42:41.573Z,94561.00
2022-09-15T14:48:02.006Z,94547.25
2022-09-15T14:50:33.202Z,94551.50
2022-09-15T14:53:20.488Z,94568.09
2022-09-15T14:56:07.072Z,94568.13
2022-09-15T14:58:42.664Z,94556.59
2022-09-15T15:01:17.410Z,94557.72
2022-09-15T15:04:01.613Z,94551.69
2022-09-15T15:06:41.815Z,94550.56
2022-09-15T15:09:14.682Z,94553.09
2022-09-15T15:11:42.268Z,94547.88
2022-09-15T15:14:12.154Z,94549.94
2022-09-15T15:16:52.416Z,94549.16
2022-09-15T15:19:32.042Z,94543.13
2022-09-15T15:22:20.135Z,94555.56
2022-09-15T15:24:52.711Z,94561.69
2022-09-15T15:27:34.908Z,94572.28
2022-09-15T15:30:33.159Z,94575.53
2022-09-15T15:33:04.673Z,94571.06
2022-09-15T15:35:33.225Z,94569.88
2022-09-15T15:38:08.095Z,94570.97
2022-09-15T15:40:37.606Z,94571.94
2022-09-15T15:43:08.062Z,94572.44
2022-09-15T15:45:36.426Z,94580.84
2022-09-15T15:48:04.528Z,94566.63
2022-09-15T15:50:32.836Z,94587.03
2022-09-15T15:53:00.924Z,94586.25
2022-09-15T15:55:39.141Z,94591.63
2022-09-15T15:58:06.782Z,94592.66
2022-09-15T16:00:45.744Z,94600.38
2022-09-15T16:03:13.963Z,94598.69
2022-09-15T16:05:47.187Z,94590.34
2022-09-15T16:08:27.269Z,94593.50
2022-09-15T16:10:55.494Z,94588.28
2022-09-15T16:13:23.809Z,94574.13
2022-09-15T16:15:51.105Z,94583.50
2022-09-15T16:18:18.215Z,94585.47
2022-09-15T16:20:45.256Z,94575.47
2022-09-15T16:23:15.316Z,94583.53
2022-09-15T16:25:49.908Z,94581.03
2022-09-15T16:28:17.578Z,94587.53
2022-09-15T16:30:44.961Z,94578.63
2022-09-15T16:33:16.290Z,94557.31
2022-09-15T16:35:51.919Z,94576.81
2022-09-15T16:38:20.359Z,94583.44
2022-09-15T16:40:51.357Z,94575.63
2022-09-15T16:43:23.715Z,94585.75
2022-09-15T16:45:51.655Z,94585.91
2022-09-15T16:48:19.182Z,94590.53
2022-09-15T16:51:02.447Z,94586.63
2022-09-15T16:53:34.115Z,94578.97
2022-09-15T16:56:01.174Z,94591.59
2022-09-15T16:58:28.615Z,94588.50
2022-09-15T17:00:56.801Z,94593.94
2022-09-15T17:03:25.729Z,94599.56
2022-09-15T17:05:57.868Z,94591.16
2022-09-15T17:08:29.570Z,94589.34
2022-09-15T17:10:58.422Z,94582.22
2022-09-15T17:13:29.532Z,94572.22
2022-09-15T17:15:58.358Z,94576.53
2022-09-15T17:18:25.996Z,94580.81
2022-09-15T17:20:53.238Z,94573.41
2022-09-15T17:23:24.222Z,94581.19
2022-09-15T17:25:53.551Z,94576.44
2022-09-15T17:28:23.453Z,94585.56
2022-09-15T17:30:53.349Z,94590.91
2022-09-15T17:33:21.199Z,94597.34
2022-09-15T17:35:49.353Z,94593.91
2022-09-15T17:38:20.262Z,94593.97
2022-09-15T17:40:48.581Z,94600.06
2022-09-15T17:43:20.977Z,94599.56
2022-09-15T17:45:49.184Z,94597.22
2022-09-15T17:48:16.475Z,94595.41
2022-09-15T17:50:45.340Z,94603.38
2022-09-15T17:53:15.148Z,94614.78
2022-09-15T17:55:45.947Z,94606.31
2022-09-15T17:58:13.189Z,94609.22
2022-09-15T18:00:42.649Z,94612.94
2022-09-15T18:03:35.130Z,94606.84
2022-09-15T18:06:05.370Z,94607.91
2022-09-15T18:08:36.346Z,94608.44
2022-09-15T18:11:05.662Z,94605.81
2022-09-15T18:13:33.678Z,94603.69
2022-09-15T18:16:10.384Z,94605.03
2022-09-15T18:18:38.153Z,94615.88
2022-09-15T18:21:09.870Z,94616.09
2022-09-15T18:23:37.683Z,94607.63
2022-09-15T18:26:04.610Z,94596.47
2022-09-15T18:28:31.513Z,94591.13
2022-09-15T18:30:58.922Z,94589.00
2022-09-15T18:33:26.264Z,94589.53
2022-09-15T18:35:55.623Z,94594.81
2022-09-15T18:38:23.065Z,94587.06
2022-09-15T18:40:53.563Z,94581.50
2022-09-15T18:43:22.087Z,94577.53
2022-09-15T18:45:49.819Z,94582.25
2022-09-15T18:48:17.027Z,94576.69
2022-09-15T18:50:45.940Z,94571.41
2022-09-15T18:53:13.419Z,94565.03
2022-09-15T18:55:42.083Z,94562.88
2022-09-15T18:58:09.157Z,94563.69
2022-09-15T19:00:36.144Z,94569.22
2022-09-15T19:03:05.672Z,94564.91
2022-09-15T19:05:33.152Z,94556.72
2022-09-15T19:08:00.641Z,94559.59
2022-09-15T19:10:27.592Z,94544.72
2022-09-15T19:12:54.735Z,94553.72
2022-09-15T19:15:25.052Z,94557.06
2022-09-15T19:17:52.002Z,94544.84
2022-09-15T19:20:19.161Z,94532.34
2022-09-15T19:22:46.519Z,94523.06
2022-09-15T19:25:14.001Z,94532.03
2022-09-15T19:27:41.473Z,94532.00
2022-09-15T19:30:10.241Z,94544.16
2022-09-15T19:32:38.458Z,94537.53
2022-09-15T19:35:06.398Z,94536.47
2022-09-15T19:37:37.546Z,94524.91
2022-09-15T19:40:10.105Z,94528.97
2022-09-15T19:42:38.840Z,94529.13
2022-09-15T19:45:06.867Z,94514.06
2022-09-15T19:47:34.336Z,94516.75
2022-09-15T19:50:01.382Z,94521.53
2022-09-15T19:52:28.587Z,94497.72
2022-09-15T19:54:55.479Z,94505.41
2022-09-15T19:57:22.739Z,94494.03
2022-09-15T19:59:50.174Z,94499.34
2022-09-15T20:02:17.754Z,94501.50
2022-09-15T20:04:44.955Z,94500.44
2022-09-15T20:07:12.764Z,94495.94
2022-09-15T20:09:39.620Z,94496.75
2022-09-15T20:12:06.820Z,94489.31
2022-09-15T20:14:33.840Z,94482.94
2022-09-15T20:17:01.430Z,94487.69
2022-09-15T20:19:29.494Z,94491.13
2022-09-15T20:21:56.506Z,94485.50
2022-09-15T20:24:24.345Z,94492.78
2022-09-15T20:26:51.764Z,94485.38
2022-09-15T20:29:19.303Z,94500.66
2022-09-15T20:31:46.589Z,94504.31
2022-09-15T20:34:13.654Z,94502.69
2022-09-15T20:36:40.850Z,94507.38
2022-09-15T20:39:13.191Z,94502.78
2022-09-15T20:41:41.712Z,94517.78
2022-09-15T20:44:12.026Z,94509.47
2022-09-15T20:46:39.073Z,94519.72
2022-09-15T20:49:06.929Z,94514.81
2022-09-15T20:51:34.046Z,94540.81
2022-09-15T20:54:03.834Z,94526.19
2022-09-15T20:56:32.386Z,94539.41
2022-09-15T20:59:00.124Z,94543.63
2022-09-15T21:01:35.390Z,94547.78
2022-09-15T21:04:02.579Z,94550.63
2022-09-15T21:06:29.821Z,94553.25
2022-09-15T21:08:57.864Z,94554.25
2022-09-15T21:11:30.225Z,94555.03
2022-09-15T21:13:57.584Z,94551.59
2022-09-15T21:16:27.613Z,94557.41
2022-09-15T21:18:56.450Z,94555.81
2022-09-15T21:21:24.353Z,94558.44
2022-09-15T21:23:56.829Z,94552.06
2022-09-15T21:26:31.695Z,94563.13
2022-09-15T21:28:58.625Z,94558.78
2022-09-15T21:31:28.224Z,94555.59
2022-09-15T21:33:56.810Z,94555.25
2022-09-15T21:36:26.370Z,94572.94
2022-09-15T21:38:55.162Z,94546.00
2022-09-15T21:41:24.282Z,94549.66
2022-09-15T21:43:55.738Z,94562.06
2022-09-15T21:46:28.841Z,94554.63
2022-09-15T21:48:57.776Z,94560.44
2022-09-15T21:51:26.577Z,94562.28
2022-09-15T21:53:54.378Z,94569.63
2022-09-15T21:56:22.069Z,94564.91
2022-09-15T21:58:49.203Z,94560.94
2022-09-15T22:01:25.879Z,94589.94
2022-09-15T22:03:58.842Z,94567.53
2022-09-15T22:06:32.146Z,94571.22
2022-09-15T22:09:05.773Z,94576.50
2022-09-15T22:11:33.153Z,94568.03
2022-09-15T22:14:03.057Z,94581.16
2022-09-15T22:16:30.447Z,94565.81
2022-09-15T22:18:57.693Z,94576.25
2022-09-15T22:21:27.509Z,94565.38
2022-09-15T22:23:56.781Z,94564.59
2022-09-15T22:26:32.539Z,94568.97
2022-09-15T22:29:00.306Z,94570.22
2022-09-15T22:31:28.645Z,94562.31
2022-09-15T22:33:55.686Z,94569.44
2022-09-15T22:36:28.913Z,94552.25
2022-09-15T22:39:03.020Z,94561.13
2022-09-15T22:41:31.419Z,94561.72
2022-09-15T22:43:58.384Z,94575.84
2022-09-15T22:46:25.476Z,94566.00
2022-09-15T22:48:52.344Z,94574.31
2022-09-15T22:51:19.283Z,94557.94
2022-09-15T22:53:46.188Z,94553.63
2022-09-15T22:56:14.747Z,94549.50
2022-09-15T22:58:46.695Z,94540.78
2022-09-15T23:01:17.003Z,94555.56
2022-09-15T23:03:47.635Z,94549.50
2022-09-15T23:06:14.808Z,94563.63
2022-09-15T23:08:41.775Z,94552.94
2022-09-15T23:11:13.907Z,94562.28
2022-09-15T23:13:41.667Z,94533.38
2022-09-15T23:16:09.308Z,94548.94
2022-09-15T23:18:36.811Z,94552.38
2022-09-15T23:21:09.104Z,94550.78
2022-09-15T23:23:38.409Z,94547.34
2022-09-15T23:26:10.275Z,94541.50
2022-09-15T23:28:39.219Z,94539.69
2022-09-15T23:31:06.952Z,94545.13
2022-09-15T23:33:34.027Z,94555.09
2022-09-15T23:36:03.706Z,94549.59
2022-09-15T23:38:34.673Z,94544.00
2022-09-15T23:41:01.932Z,94557.63
2022-09-15T23:43:28.730Z,94558.09
2022-09-15T23:45:55.567Z,94554.81
2022-09-15T23:48:23.503Z,94546.25
2022-09-15T23:50:50.629Z,94560.34
2022-09-15T23:53:18.304Z,94546.63
2022-09-15T23:55:46.750Z,94552.63
2022-09-15T23:58:13.745Z,94559.28
